Time;durP1;ratioP1;P1;durP2;ratioP2;P2;SDS_P1;SDS_P2;PMS_P1;PMS_P2;Temp;Humidity;BMP_temperature;BMP_pressure;BME280_temperature;BME280_humidity;BME280_pressure;Samples;Min_cycle;Max_cycle;Signal;HPM_P1;HPM_P2
2023/09/18 00:01:12;;;;;;;20.00;12.53;;;;;;;19.04;100.00;100403.56;4918238;29;20031;-93
2023/09/18 00:03:38;;;;;;;15.97;12.37;;;;;;;19.01;100.00;100404.97;4917525;29;20036;-93
2023/09/18 00:06:03;;;;;;;19.00;12.80;;;;;;;19.00;100.00;100395.09;4917087;29;20644;-93
2023/09/18 00:08:34;;;;;;;16.35;12.75;;;;;;;18.98;100.00;100397.28;4917573;29;20032;-93
2023/09/18 00:11:00;;;;;;;16.77;12.70;;;;;;;18.98;100.00;100397.28;4917214;29;20407;-93
2023/09/18 00:13:26;;;;;;;14.90;12.17;;;;;;;19.00;100.00;100405.25;4916965;29;20465;-93
2023/09/18 00:15:55;;;;;;;15.10;11.82;;;;;;;18.98;100.00;100394.53;4918217;29;20032;-93
2023/09/18 00:18:30;;;;;;;17.30;11.88;;;;;;;19.00;100.00;100386.00;4917073;29;20035;-93
2023/09/18 00:20:56;;;;;;;13.03;11.03;;;;;;;18.98;100.00;100372.53;4917171;29;20064;-93
2023/09/18 00:23:24;;;;;;;14.68;10.80;;;;;;;18.97;100.00;100370.91;4916776;29;20473;-93
2023/09/18 00:25:52;;;;;;;14.30;10.98;;;;;;;18.98;100.00;100363.47;4916435;29;20051;-93
2023/09/18 00:28:18;;;;;;;15.17;11.30;;;;;;;18.98;100.00;100352.47;4901275;29;20044;-93
2023/09/18 00:30:48;;;;;;;12.10;10.75;;;;;;;18.99;100.00;100343.94;4916993;29;20092;-93
2023/09/18 00:33:14;;;;;;;15.00;10.73;;;;;;;18.98;100.00;100336.81;4917435;29;20115;-93
2023/09/18 00:35:39;;;;;;;14.38;10.48;;;;;;;19.01;100.00;100338.16;4916971;29;20107;-94
2023/09/18 00:38:07;;;;;;;17.50;10.43;;;;;;;19.00;100.00;100340.09;4917605;29;20072;-92
2023/09/18 00:40:35;;;;;;;11.82;10.10;;;;;;;19.00;100.00;100334.59;4917763;29;20024;-93
2023/09/18 00:43:00;;;;;;;13.40;10.07;;;;;;;18.99;100.00;100324.72;4916550;29;20540;-93
2023/09/18 00:45:26;;;;;;;11.30;8.97;;;;;;;19.01;100.00;100321.66;4916832;29;20059;-93
2023/09/18 00:47:55;;;;;;;12.00;9.77;;;;;;;19.01;100.00;100316.97;4916549;29;20083;-93
2023/09/18 00:50:21;;;;;;;11.85;9.30;;;;;;;19.00;100.00;100315.38;4917486;29;20062;-93
2023/09/18 00:52:53;;;;;;;12.10;9.05;;;;;;;19.01;100.00;100314.25;4900849;29;20040;-93
2023/09/18 00:55:20;;;;;;;14.82;9.75;;;;;;;19.02;100.00;100321.38;4917882;29;20028;-93
2023/09/18 00:57:46;;;;;;;11.80;9.25;;;;;;;19.01;100.00;100295.00;4916378;29;20086;-93
2023/09/18 01:00:16;;;;;;;12.37;9.87;;;;;;;19.02;100.00;100298.59;4916581;29;20482;-93
2023/09/18 01:02:45;;;;;;;15.93;9.27;;;;;;;19.04;100.00;100296.34;4916760;29;20501;-92
2023/09/18 01:05:11;;;;;;;13.88;9.02;;;;;;;19.04;100.00;100291.66;4916647;29;20497;-92
2023/09/18 01:07:39;;;;;;;12.20;9.23;;;;;;;19.06;100.00;100277.63;4916504;29;20066;-93
2023/09/18 01:10:07;;;;;;;13.57;9.18;;;;;;;19.07;100.00;100271.88;4916196;29;20032;-93
2023/09/18 01:12:48;;;;;;;11.83;9.17;;;;;;;19.09;100.00;100269.66;4916243;29;20028;-93
2023/09/18 01:15:17;;;;;;;11.07;8.50;;;;;;;19.15;100.00;100272.34;4916947;29;20051;-93
2023/09/18 01:17:43;;;;;;;12.55;8.90;;;;;;;19.14;100.00;100257.78;4916752;29;20488;-93
2023/09/18 01:20:10;;;;;;;12.52;8.30;;;;;;;19.17;100.00;100248.16;4916329;29;20057;-93
2023/09/18 01:22:36;;;;;;;11.27;8.40;;;;;;;19.18;100.00;100252.56;4900758;29;20040;-93
2023/09/18 01:25:06;;;;;;;9.27;7.57;;;;;;;19.16;100.00;100247.31;4916157;29;20487;-93
2023/09/18 01:27:32;;;;;;;10.93;7.28;;;;;;;19.18;100.00;100249.81;4916499;29;20063;-93
2023/09/18 01:30:00;;;;;;;10.43;8.00;;;;;;;19.16;100.00;100252.81;4916316;29;20040;-93
2023/09/18 01:32:31;;;;;;;15.80;8.13;;;;;;;19.17;100.00;100259.16;4916640;29;20028;-93
2023/09/18 01:35:00;;;;;;;9.52;7.90;;;;;;;19.18;100.00;100258.06;4916872;29;20043;-94
2023/09/18 01:37:29;;;;;;;11.48;7.85;;;;;;;19.21;100.00;100268.47;4916377;29;20548;-93
2023/09/18 01:39:57;;;;;;;13.25;7.95;;;;;;;19.23;100.00;100274.50;4918674;29;20036;-93
2023/09/18 01:42:23;;;;;;;14.30;7.17;;;;;;;19.24;100.00;100270.66;4921165;29;20032;-93
2023/09/18 01:44:51;;;;;;;11.93;7.53;;;;;;;19.25;100.00;100264.84;4919773;29;20103;-93
2023/09/18 01:47:28;;;;;;;12.65;7.25;;;;;;;19.30;100.00;100271.44;4904384;29;20493;-93
2023/09/18 01:49:54;;;;;;;13.73;7.20;;;;;;;19.34;100.00;100269.72;4919774;29;20469;-94
2023/09/18 01:52:20;;;;;;;14.77;7.55;;;;;;;19.37;100.00;100258.13;4919401;29;20040;-93
2023/09/18 01:54:45;;;;;;;10.37;6.60;;;;;;;19.39;100.00;100266.94;4920172;29;20131;-93
2023/09/18 01:57:12;;;;;;;11.80;6.80;;;;;;;19.40;100.00;100252.91;4920185;29;20122;-93
2023/09/18 01:59:47;;;;;;;12.48;6.30;;;;;;;19.42;100.00;100250.66;4904648;29;20103;-93
2023/09/18 02:02:13;;;;;;;13.45;6.70;;;;;;;19.45;100.00;100252.84;4919820;29;20123;-93
2023/09/18 02:04:38;;;;;;;12.43;7.13;;;;;;;19.46;100.00;100251.75;4920088;29;20068;-94
2023/09/18 02:07:07;;;;;;;11.98;6.53;;;;;;;19.45;100.00;100247.34;4919553;29;20035;-93
2023/09/18 02:09:32;;;;;;;9.80;6.63;;;;;;;19.48;100.00;100247.88;4919187;29;20433;-92
2023/09/18 02:12:05;;;;;;;11.05;6.78;;;;;;;19.46;100.00;100249.00;4919400;29;20048;-92
2023/09/18 02:14:40;;;;;;;9.95;6.07;;;;;;;19.50;100.00;100254.72;4919089;29;20063;-92
2023/09/18 02:17:14;;;;;;;9.32;6.43;;;;;;;19.51;100.00;100250.88;4889652;29;20060;-92
2023/09/18 02:19:43;;;;;;;10.07;6.17;;;;;;;19.55;100.00;100245.63;4904206;29;20048;-92
2023/09/18 02:22:08;;;;;;;12.13;6.30;;;;;;;19.53;100.00;100240.41;4918572;29;20032;-93
2023/09/18 02:24:36;;;;;;;13.75;6.60;;;;;;;19.54;100.00;100220.00;4918935;29;20043;-93
2023/09/18 02:27:08;;;;;;;13.27;6.30;;;;;;;19.54;100.00;100222.75;4903071;29;20058;-93
2023/09/18 02:29:39;;;;;;;12.00;5.80;;;;;;;19.51;100.00;100209.59;4918871;29;20043;-93
2023/09/18 02:32:04;;;;;;;10.68;5.93;;;;;;;19.51;100.00;100211.53;4903609;29;20050;-92
2023/09/18 02:34:32;;;;;;;10.13;5.80;;;;;;;19.48;100.00;100198.38;4919195;29;20059;-93
2023/09/18 02:36:59;;;;;;;12.68;5.85;;;;;;;19.46;100.00;100195.91;4918882;29;20055;-93
2023/09/18 02:39:25;;;;;;;15.95;6.55;;;;;;;19.48;100.00;100201.13;4918258;29;20028;-93
2023/09/18 02:41:54;;;;;;;10.97;5.80;;;;;;;19.46;100.00;100188.47;4918618;29;20063;-93
2023/09/18 02:44:19;;;;;;;15.52;6.32;;;;;;;19.48;100.00;100192.88;4918583;29;20038;-94
2023/09/18 02:46:44;;;;;;;8.30;5.53;;;;;;;19.48;100.00;100177.16;4918217;29;20040;-93
2023/09/18 02:49:12;;;;;;;11.38;5.70;;;;;;;19.51;100.00;100179.34;4887189;29;20039;-92
2023/09/18 02:51:40;;;;;;;12.83;6.03;;;;;;;19.54;100.00;100170.50;4917972;29;20080;-93
2023/09/18 02:54:08;;;;;;;11.50;5.97;;;;;;;19.58;100.00;100190.00;4918461;29;20473;-92
2023/09/18 02:56:38;;;;;;;11.75;6.03;;;;;;;19.55;100.00;100177.66;4902704;29;20044;-93
2023/09/18 02:59:06;;;;;;;12.13;5.88;;;;;;;19.55;100.00;100172.16;4903334;29;20131;-93
2023/09/18 03:01:31;;;;;;;15.45;5.38;;;;;;;19.57;100.00;100149.84;4918014;29;20040;-93
2023/09/18 03:03:57;;;;;;;13.07;6.07;;;;;;;19.58;100.00;100141.28;4918303;29;20036;-93
2023/09/18 03:06:23;;;;;;;8.70;5.23;;;;;;;19.61;100.00;100142.66;4918239;29;20036;-93
2023/09/18 03:08:48;;;;;;;14.70;5.88;;;;;;;19.62;100.00;100134.09;4918066;29;20036;-93
2023/09/18 03:11:16;;;;;;;14.67;5.80;;;;;;;19.64;100.00;100128.28;4917946;29;20040;-93
2023/09/18 03:13:46;;;;;;;13.90;5.88;;;;;;;19.66;100.00;100136.25;4917883;29;20028;-93
2023/09/18 03:16:17;;;;;;;16.25;5.45;;;;;;;19.66;100.00;100141.75;4902643;29;20057;-93
2023/09/18 03:18:42;;;;;;;10.18;5.78;;;;;;;19.65;100.00;100129.94;4917964;29;20039;-93
2023/09/18 03:21:08;;;;;;;12.27;6.00;;;;;;;19.64;100.00;100142.06;4901923;29;20028;-93
2023/09/18 03:23:36;;;;;;;12.73;5.43;;;;;;;19.66;100.00;100141.75;4918570;29;20036;-93
2023/09/18 03:26:01;;;;;;;13.15;5.25;;;;;;;19.64;100.00;100136.56;4917752;29;20056;-93
2023/09/18 03:28:27;;;;;;;9.20;5.40;;;;;;;19.64;100.00;100144.81;4917418;29;20059;-93
2023/09/18 03:30:52;;;;;;;14.10;5.80;;;;;;;19.65;100.00;100146.44;4917397;29;20505;-93
2023/09/18 03:33:18;;;;;;;13.87;6.00;;;;;;;19.65;100.00;100154.72;4917527;29;20047;-93
2023/09/18 03:35:51;;;;;;;11.33;6.17;;;;;;;19.63;100.00;100166.00;4917414;29;20425;-93
2023/09/18 03:38:16;;;;;;;14.57;5.95;;;;;;;19.63;100.00;100162.41;4917473;29;20032;-93
2023/09/18 03:40:43;;;;;;;16.17;6.32;;;;;;;19.64;100.00;100158.56;4917431;29;20461;-93
2023/09/18 03:43:10;;;;;;;15.30;6.85;;;;;;;19.61;100.00;100140.69;4917582;29;20122;-93
2023/09/18 03:45:40;;;;;;;14.77;6.40;;;;;;;19.64;100.00;100162.13;4917515;29;20040;-93
2023/09/18 03:48:09;;;;;;;9.88;6.18;;;;;;;19.59;100.00;100166.88;4917162;29;20032;-93
2023/09/18 03:50:39;;;;;;;11.60;6.35;;;;;;;19.51;100.00;100153.75;4917261;29;20148;-92
2023/09/18 03:53:06;;;;;;;17.45;6.97;;;;;;;19.50;100.00;100154.88;4901583;29;20508;-93
2023/09/18 03:55:36;;;;;;;9.55;6.35;;;;;;;19.51;100.00;100156.50;4917372;29;20043;-93
2023/09/18 03:58:02;;;;;;;12.17;5.97;;;;;;;19.48;100.00;100148.84;4902804;29;20040;-93
2023/09/18 04:00:29;;;;;;;17.55;6.55;;;;;;;19.43;100.00;100147.78;4917966;29;20039;-93
2023/09/18 04:02:58;;;;;;;11.80;6.60;;;;;;;19.39;100.00;100168.72;4916867;29;20458;-93
2023/09/18 04:05:23;;;;;;;13.23;6.60;;;;;;;19.34;100.00;100179.78;4917174;29;20032;-92
2023/09/18 04:07:51;;;;;;;12.77;6.30;;;;;;;19.35;100.00;100186.09;4917663;29;20627;-93
2023/09/18 04:10:22;;;;;;;14.10;7.32;;;;;;;19.29;100.00;100177.09;4916984;29;20032;-92
2023/09/18 04:12:50;;;;;;;14.63;7.30;;;;;;;19.19;100.00;100179.94;4916982;29;20032;-93
2023/09/18 04:15:19;;;;;;;12.27;7.35;;;;;;;19.03;100.00;100168.25;4917165;29;20039;-93
2023/09/18 04:17:52;;;;;;;11.20;7.50;;;;;;;18.95;100.00;100174.38;4916914;29;20040;-93
2023/09/18 04:20:24;;;;;;;13.52;7.45;;;;;;;18.89;100.00;100160.66;4916927;29;20032;-93
2023/09/18 04:23:18;;;;;;;12.68;7.75;;;;;;;18.85;100.00;100151.34;4901665;29;20508;-94
2023/09/18 04:25:43;;;;;;;14.70;8.18;;;;;;;18.90;100.00;100145.03;4917133;29;20043;-93
2023/09/18 04:28:19;;;;;;;11.33;7.77;;;;;;;18.88;100.00;100145.31;4916766;29;20052;-94
2023/09/18 04:30:54;;;;;;;11.45;8.13;;;;;;;18.90;100.00;100145.81;4916974;29;20536;-93
2023/09/18 04:33:21;;;;;;;14.20;8.52;;;;;;;18.92;100.00;100143.59;4901387;29;20031;-93
2023/09/18 04:35:46;;;;;;;15.20;8.60;;;;;;;18.94;100.00;100140.56;4917082;29;20032;-93
2023/09/18 04:38:15;;;;;;;17.20;8.63;;;;;;;18.96;100.00;100129.31;4916536;29;20043;-93
2023/09/18 04:40:40;;;;;;;13.43;8.32;;;;;;;18.96;100.00;100107.31;4916746;29;20029;-93
2023/09/18 04:43:08;;;;;;;14.30;8.70;;;;;;;18.95;100.00;100102.91;4916713;29;20035;-93
2023/09/18 04:45:34;;;;;;;14.98;8.93;;;;;;;18.90;100.00;100090.84;4917009;29;20032;-94
2023/09/18 04:48:02;;;;;;;15.87;8.63;;;;;;;18.89;100.00;100085.66;4917197;29;20449;-93
2023/09/18 04:50:28;;;;;;;12.27;8.50;;;;;;;18.87;100.00;100085.94;4916962;29;20455;-93
2023/09/18 04:52:55;;;;;;;13.40;8.70;;;;;;;18.85;100.00;100070.81;4916282;29;20055;-93
2023/09/18 04:55:26;;;;;;;15.20;8.88;;;;;;;18.84;100.00;100080.16;4916586;29;20055;-93
2023/09/18 04:57:54;;;;;;;16.63;8.80;;;;;;;18.83;100.00;100078.53;4916919;29;20060;-93
2023/09/18 05:00:23;;;;;;;18.80;9.50;;;;;;;18.82;100.00;100074.16;4916703;29;20070;-93
2023/09/18 05:02:51;;;;;;;12.63;9.18;;;;;;;18.81;100.00;100081.59;4916911;29;20028;-92
2023/09/18 05:05:21;;;;;;;16.30;9.27;;;;;;;18.77;100.00;100075.81;4916760;29;20028;-92
2023/09/18 05:07:49;;;;;;;15.52;8.95;;;;;;;18.75;100.00;100078.06;4916784;29;20028;-93
2023/09/18 05:10:15;;;;;;;18.02;9.10;;;;;;;18.72;100.00;100083.28;4900794;29;20043;-93
2023/09/18 05:12:43;;;;;;;12.70;8.77;;;;;;;18.70;100.00;100080.03;4916272;29;20028;-93
2023/09/18 05:15:17;;;;;;;12.32;7.32;;;;;;;18.67;100.00;100080.59;4920337;29;20028;-93
2023/09/18 05:17:46;;;;;;;9.73;6.13;;;;;;;18.70;100.00;100088.25;4920497;29;20528;-94
2023/09/18 05:20:14;;;;;;;10.70;5.93;;;;;;;18.68;100.00;100099.53;4920506;29;20028;-93
2023/09/18 05:22:49;;;;;;;8.50;5.07;;;;;;;18.69;100.00;100100.34;4919512;29;20032;-94
2023/09/18 05:25:24;;;;;;;10.10;5.40;;;;;;;18.72;100.00;100092.38;4906642;29;20039;-94
2023/09/18 05:27:57;;;;;;;11.43;4.53;;;;;;;18.73;100.00;100109.66;4904275;29;20055;-87
2023/09/18 05:30:32;;;;;;;6.65;4.22;;;;;;;18.82;100.00;100096.13;4920850;29;20035;-95
2023/09/18 05:33:04;;;;;;;6.65;3.70;;;;;;;18.80;100.00;100087.38;4920906;29;20040;-94
2023/09/18 05:35:40;;;;;;;5.28;3.50;;;;;;;18.82;100.00;100094.19;4921485;29;20102;-92
2023/09/18 05:38:06;;;;;;;7.73;3.30;;;;;;;18.82;100.00;100090.63;4919968;29;20036;-94
2023/09/18 05:40:34;;;;;;;5.50;3.03;;;;;;;18.83;100.00;100098.59;4920546;29;20437;-92
2023/09/18 05:43:02;;;;;;;6.35;3.03;;;;;;;18.80;100.00;100093.66;4920659;29;20092;-90
2023/09/18 05:45:28;;;;;;;5.00;2.13;;;;;;;18.75;100.00;100099.22;4919105;29;20072;-90
2023/09/18 05:48:01;;;;;;;4.70;2.63;;;;;;;18.71;100.00;100109.97;4918955;29;20026;-86
2023/09/18 05:50:29;;;;;;;6.90;2.70;;;;;;;18.68;100.00;100110.53;4919088;29;20384;-90
2023/09/18 05:53:03;;;;;;;4.97;2.30;;;;;;;18.69;100.00;100114.94;4918790;29;20094;-89
2023/09/18 05:55:30;;;;;;;4.30;2.30;;;;;;;18.74;100.00;100108.56;4918558;29;20036;-91
2023/09/18 05:57:58;;;;;;;4.00;1.80;;;;;;;18.72;100.00;100119.84;4920385;29;20054;-88
2023/09/18 06:00:23;;;;;;;5.37;2.10;;;;;;;18.72;100.00;100121.75;4919524;29;20028;-88
2023/09/18 06:02:51;;;;;;;3.88;2.03;;;;;;;18.69;100.00;100119.59;4918548;29;20028;-86
2023/09/18 06:05:22;;;;;;;4.95;2.03;;;;;;;18.68;100.00;100132.50;4918545;29;20047;-92
2023/09/18 06:07:51;;;;;;;3.47;1.70;;;;;;;18.66;100.00;100121.00;4918682;29;20389;-90
2023/09/18 06:10:28;;;;;;;6.40;2.25;;;;;;;18.63;100.00;100127.06;4902486;29;20024;-91
2023/09/18 06:12:54;;;;;;;2.20;1.63;;;;;;;18.62;100.00;100138.34;4917745;29;20040;-90
2023/09/18 06:15:22;;;;;;;5.90;1.83;;;;;;;18.68;100.00;100135.25;4903381;29;20092;-90
2023/09/18 06:17:53;;;;;;;6.75;1.80;;;;;;;18.65;100.00;100141.34;4918429;29;20028;-90
2023/09/18 06:20:18;;;;;;;3.50;1.77;;;;;;;18.63;100.00;100143.56;4918267;29;20079;-90
2023/09/18 06:22:46;;;;;;;3.93;1.70;;;;;;;18.61;100.00;100129.28;4917982;29;20110;-90
2023/09/18 06:25:15;;;;;;;6.35;1.75;;;;;;;18.64;100.00;100141.63;4917766;29;20046;-90
2023/09/18 06:27:44;;;;;;;3.05;1.60;;;;;;;18.65;100.00;100146.84;4918008;29;20044;-89
2023/09/18 06:30:10;;;;;;;4.45;1.50;;;;;;;18.64;100.00;100142.44;4917864;29;20024;-89
2023/09/18 06:32:36;;;;;;;5.10;1.67;;;;;;;18.65;100.00;100148.78;4902660;29;20046;-89
2023/09/18 06:35:03;;;;;;;4.03;1.57;;;;;;;18.66;100.00;100140.25;4918180;29;20052;-90
2023/09/18 06:37:31;;;;;;;3.22;1.50;;;;;;;18.70;100.00;100148.72;4917274;29;20042;-89
2023/09/18 06:39:57;;;;;;;4.78;1.65;;;;;;;18.69;100.00;100160.81;4902110;29;20103;-90
2023/09/18 06:42:23;;;;;;;7.47;1.60;;;;;;;18.72;100.00;100169.31;4917788;29;20040;-90
2023/09/18 06:44:48;;;;;;;3.40;1.40;;;;;;;18.77;100.00;100152.75;4919209;29;20111;-89
2023/09/18 06:47:16;;;;;;;4.38;1.42;;;;;;;18.79;100.00;100163.47;4917806;29;20373;-88
2023/09/18 06:49:42;;;;;;;2.63;1.73;;;;;;;18.81;100.00;100172.28;4901486;29;20036;-89
2023/09/18 06:52:09;;;;;;;5.57;1.55;;;;;;;18.86;100.00;100175.00;4917209;29;20173;-89
2023/09/18 06:54:37;;;;;;;4.80;1.33;;;;;;;18.91;100.00;100174.13;4917282;29;20032;-89
2023/09/18 06:57:03;;;;;;;4.53;1.55;;;;;;;18.92;100.00;100187.56;4917947;29;20064;-89
2023/09/18 06:59:33;;;;;;;4.40;1.40;;;;;;;18.95;100.00;100190.88;4917518;29;20052;-89
2023/09/18 07:02:02;;;;;;;3.50;1.40;;;;;;;18.96;100.00;100190.59;4917833;29;20063;-90
2023/09/18 07:04:27;;;;;;;4.57;1.63;;;;;;;18.95;100.00;100186.19;4918485;29;20067;-89
2023/09/18 07:06:53;;;;;;;5.93;1.57;;;;;;;18.97;100.00;100174.91;4918403;29;20064;-89
2023/09/18 07:09:19;;;;;;;3.70;1.67;;;;;;;18.98;100.00;100191.09;4917246;29;20046;-88
2023/09/18 07:11:45;;;;;;;3.88;2.03;;;;;;;19.01;100.00;100182.28;4918273;29;20044;-88
2023/09/18 07:14:10;;;;;;;6.77;1.60;;;;;;;19.00;100.00;100191.66;4917439;29;20028;-88
2023/09/18 07:16:36;;;;;;;6.35;1.80;;;;;;;19.03;100.00;100193.84;4916920;29;20039;-89
2023/09/18 07:19:04;;;;;;;2.53;1.40;;;;;;;19.06;100.00;100184.16;4901618;29;20036;-88
2023/09/18 07:21:30;;;;;;;5.78;1.70;;;;;;;19.07;100.00;100196.81;4916873;29;20044;-89
2023/09/18 07:23:56;;;;;;;5.03;1.67;;;;;;;19.08;100.00;100192.97;4900638;29;20060;-89
2023/09/18 07:26:21;;;;;;;2.65;1.65;;;;;;;19.09;100.00;100187.16;4916522;29;20493;-89
2023/09/18 07:28:49;;;;;;;8.07;1.80;;;;;;;19.13;100.00;100189.34;4917249;29;20074;-89
2023/09/18 07:31:24;;;;;;;4.80;1.60;;;;;;;19.16;100.00;100211.56;4901337;29;20112;-89
2023/09/18 07:33:53;;;;;;;3.50;1.55;;;;;;;19.20;100.00;100200.84;4901275;29;20039;-89
2023/09/18 07:36:18;;;;;;;4.03;1.70;;;;;;;19.24;100.00;100188.97;4900554;29;20044;-88
2023/09/18 07:38:45;;;;;;;3.23;1.73;;;;;;;19.30;100.00;100209.00;4917634;29;20084;-88
2023/09/18 07:41:15;;;;;;;4.13;1.63;;;;;;;19.30;100.00;100211.75;4916592;29;20028;-89
2023/09/18 07:43:41;;;;;;;2.53;1.58;;;;;;;19.28;100.00;100213.94;4917114;29;20032;-86
2023/09/18 07:46:10;;;;;;;5.53;1.90;;;;;;;19.35;100.00;100219.94;4900939;29;20037;-90
2023/09/18 07:48:36;;;;;;;2.05;1.38;;;;;;;19.38;100.00;100196.53;4917997;29;20042;-90
2023/09/18 07:51:02;;;;;;;3.45;1.50;;;;;;;19.40;100.00;100197.88;4918132;29;20477;-87
2023/09/18 07:53:27;;;;;;;3.60;1.50;;;;;;;19.38;100.00;100200.09;4916260;29;20032;-92
2023/09/18 07:56:01;;;;;;;3.43;1.57;;;;;;;19.39;100.00;100209.19;4917015;29;20035;-89
2023/09/18 07:58:29;;;;;;;5.95;1.70;;;;;;;19.39;100.00;100198.19;4916790;29;20028;-88
2023/09/18 08:00:58;;;;;;;3.28;1.30;;;;;;;19.42;100.00;100197.59;4917742;29;20059;-90
2023/09/18 08:03:24;;;;;;;3.28;1.58;;;;;;;19.37;100.00;100192.97;4901049;29;20048;-91
2023/09/18 08:05:52;;;;;;;3.45;1.60;;;;;;;19.31;100.00;100194.13;4886826;29;20122;-91
2023/09/18 08:08:22;;;;;;;5.87;1.70;;;;;;;19.32;100.00;100205.94;4917878;29;20032;-91
2023/09/18 08:10:54;;;;;;;4.15;1.90;;;;;;;19.29;100.00;100215.59;4900887;29;20115;-90
2023/09/18 08:13:25;;;;;;;3.65;1.70;;;;;;;19.19;100.00;100212.94;4917329;29;20048;-92
2023/09/18 08:15:53;;;;;;;3.00;1.75;;;;;;;19.06;100.00;100203.41;4900222;29;20127;-92
2023/09/18 08:18:19;;;;;;;6.18;2.10;;;;;;;19.04;100.00;100206.44;4901444;29;20493;-91
2023/09/18 08:21:04;;;;;;;3.73;1.70;;;;;;;18.99;100.00;100214.75;4873570;29;20139;-90
2023/09/18 08:23:31;;;;;;;3.63;1.73;;;;;;;18.98;100.00;100228.78;4898103;29;20486;-90
2023/09/18 08:25:57;;;;;;;3.93;1.40;;;;;;;18.97;100.00;100222.47;4902416;29;20037;-89
2023/09/18 08:28:33;;;;;;;4.95;1.80;;;;;;;19.00;100.00;100227.41;4878207;29;20056;-90
2023/09/18 08:30:59;;;;;;;3.47;1.50;;;;;;;19.01;100.00;100233.69;4911762;29;20036;-89
2023/09/18 08:33:25;;;;;;;4.45;1.60;;;;;;;19.06;100.00;100239.16;4915748;29;20024;-90
2023/09/18 08:35:59;;;;;;;4.50;1.90;;;;;;;19.09;100.00;100230.34;4912275;29;20047;-89
2023/09/18 08:38:24;;;;;;;2.40;1.80;;;;;;;19.09;100.00;100260.59;4878563;29;20470;-90
2023/09/18 08:41:03;;;;;;;8.15;1.80;;;;;;;19.09;100.00;100250.41;4878138;29;20032;-89
2023/09/18 08:43:32;;;;;;;5.05;1.67;;;;;;;19.14;100.00;100248.72;4891761;29;20115;-92
2023/09/18 08:46:07;;;;;;;4.03;1.83;;;;;;;19.14;100.00;100257.78;4897948;29;20029;-91
2023/09/18 08:48:37;;;;;;;3.50;1.88;;;;;;;19.19;100.00;100259.69;4897921;29;20087;-92
2023/09/18 08:51:06;;;;;;;9.23;2.17;;;;;;;19.15;100.00;100255.84;4898369;29;20468;-91
2023/09/18 08:53:34;;;;;;;4.60;2.08;;;;;;;19.12;100.00;100243.53;4881962;29;20060;-91
2023/09/18 08:56:05;;;;;;;4.38;1.83;;;;;;;19.09;100.00;100238.59;4898217;29;20533;-91
2023/09/18 08:58:37;;;;;;;5.83;1.70;;;;;;;19.14;100.00;100241.28;4885040;29;20157;-88
2023/09/18 09:01:09;;;;;;;5.75;1.98;;;;;;;19.20;100.00;100239.31;4900596;29;20040;-90
2023/09/18 09:03:41;;;;;;;3.05;2.00;;;;;;;19.30;100.00;100242.00;4900644;29;20040;-90
2023/09/18 09:06:16;;;;;;;2.78;1.83;;;;;;;19.34;100.00;100240.31;4895409;29;20123;-90
2023/09/18 09:08:56;;;;;;;2.47;1.67;;;;;;;19.49;100.00;100255.00;4883553;29;20101;-89
2023/09/18 09:11:22;;;;;;;5.70;1.70;;;;;;;19.60;100.00;100254.63;4882086;29;20063;-90
2023/09/18 09:14:06;;;;;;;5.65;1.88;;;;;;;19.77;100.00;100245.13;4881853;29;20470;-89
2023/09/18 09:16:42;;;;;;;;;;;;;;;;;;;;;
2023/09/18 09:19:08;;;;;;;4.87;2.07;;;;;;;20.28;100.00;100249.22;4903535;29;20028;-90
2023/09/18 09:21:43;;;;;;;6.90;2.38;;;;;;;20.43;100.00;100273.81;4901714;29;20131;-91
2023/09/18 09:24:14;;;;;;;1.77;1.60;;;;;;;20.58;100.00;100266.44;4901733;29;20382;-90
2023/09/18 09:26:40;;;;;;;8.63;2.10;;;;;;;20.72;100.00;100267.38;4902787;29;20036;-91
2023/09/18 09:29:19;;;;;;;9.18;2.20;;;;;;;20.91;100.00;100281.16;4906045;29;20032;-94
2023/09/18 09:31:50;;;;;;;4.22;1.90;;;;;;;21.14;100.00;100273.09;4903550;29;20088;-90
2023/09/18 09:34:26;;;;;;;6.30;2.22;;;;;;;21.38;100.00;100278.50;4904305;29;20604;-90
2023/09/18 09:37:03;;;;;;;5.55;2.22;;;;;;;21.52;100.00;100273.84;4903357;29;20036;-89
2023/09/18 09:39:31;;;;;;;6.43;2.27;;;;;;;21.44;100.00;100276.47;4893524;29;20058;-90
2023/09/18 09:42:01;;;;;;;5.10;1.88;;;;;;;21.43;100.00;100272.06;4922028;29;20095;-90
2023/09/18 09:44:31;;;;;;;5.22;2.30;;;;;;;21.47;100.00;100276.69;4922091;29;20032;-90
2023/09/18 09:47:04;;;;;;;6.22;2.03;;;;;;;21.63;100.00;100260.72;4906395;29;20040;-92
2023/09/18 09:49:57;;;;;;;4.55;2.00;;;;;;;21.81;100.00;100263.69;4922108;29;20051;-92
2023/09/18 09:52:27;;;;;;;6.50;2.13;;;;;;;21.83;99.02;100265.00;4922633;29;20480;-92
2023/09/18 09:55:24;;;;;;;3.08;1.70;;;;;;;21.82;98.67;100265.31;4907009;29;20506;-91
2023/09/18 09:58:10;;;;;;;2.85;1.95;;;;;;;21.82;98.95;100266.16;4922356;29;20032;-92
2023/09/18 10:01:17;;;;;;;8.65;2.30;;;;;;;21.77;98.57;100276.47;4921530;29;20123;-92
2023/09/18 10:03:55;;;;;;;6.60;2.15;;;;;;;21.82;98.50;100285.47;4876468;29;20032;-91
2023/09/18 10:06:29;;;;;;;4.27;1.97;;;;;;;21.79;96.50;100280.56;4904815;29;20040;-92
2023/09/18 10:09:07;;;;;;;5.65;2.10;;;;;;;22.07;96.11;100284.16;4922178;29;20036;-91
2023/09/18 10:11:59;;;;;;;4.10;1.98;;;;;;;22.14;95.14;100294.00;4921563;29;20138;-92
2023/09/18 10:14:35;;;;;;;5.15;2.30;;;;;;;22.06;94.54;100301.06;4907492;29;20162;-91
2023/09/18 10:17:22;;;;;;;6.15;2.95;;;;;;;22.03;95.14;100307.19;4922328;29;20039;-91
2023/09/18 10:20:22;;;;;;;7.63;2.30;;;;;;;22.10;95.26;100290.19;4921958;29;20035;-94
2023/09/18 10:23:12;;;;;;;4.05;2.10;;;;;;;22.31;94.01;100285.91;4921986;29;20032;-92
2023/09/18 10:25:41;;;;;;;4.55;2.30;;;;;;;22.44;91.70;100289.81;4921117;29;20086;-90
2023/09/18 10:28:26;;;;;;;5.90;2.00;;;;;;;22.45;91.56;100298.91;4918188;29;20069;-92
2023/09/18 10:31:02;;;;;;;4.50;2.00;;;;;;;22.66;90.43;100291.00;4918407;29;20028;-91
2023/09/18 10:33:29;;;;;;;5.17;2.40;;;;;;;22.77;89.94;100295.97;4921614;29;20036;-90
2023/09/18 10:36:00;;;;;;;3.72;2.20;;;;;;;22.43;91.22;100302.81;4919310;29;20051;-91
2023/09/18 10:38:30;;;;;;;7.32;2.60;;;;;;;22.03;93.22;100298.91;4903175;29;20047;-91
2023/09/18 10:41:02;;;;;;;5.45;2.15;;;;;;;22.02;94.59;100300.81;4919864;29;20032;-91
2023/09/18 10:43:28;;;;;;;4.82;2.55;;;;;;;22.03;93.97;100296.94;4917607;29;20130;-90
2023/09/18 10:45:57;;;;;;;5.10;2.40;;;;;;;21.86;93.89;100308.56;4917610;29;20119;-91
2023/09/18 10:48:34;;;;;;;5.15;2.38;;;;;;;21.83;93.32;100309.19;4918165;29;20035;-91
2023/09/18 10:51:05;;;;;;;6.53;2.88;;;;;;;21.64;93.67;100295.47;4903829;29;20036;-92
2023/09/18 10:53:35;;;;;;;3.83;2.70;;;;;;;21.68;91.02;100282.69;4917276;29;20115;-92
2023/09/18 10:56:15;;;;;;;8.38;2.70;;;;;;;21.63;93.12;100280.03;4918195;29;20111;-92
2023/09/18 10:59:04;;;;;;;5.57;2.90;;;;;;;21.73;92.22;100282.59;4918001;29;20029;-92
2023/09/18 11:01:54;;;;;;;5.35;2.72;;;;;;;21.92;91.26;100276.16;4905081;29;20496;-90
2023/09/18 11:04:31;;;;;;;3.20;2.50;;;;;;;22.39;89.62;100290.72;4904111;29;20179;-92
2023/09/18 11:07:04;;;;;;;5.50;2.77;;;;;;;23.26;86.96;100276.06;4917637;29;20039;-92
2023/09/18 11:10:22;;;;;;;3.70;2.60;;;;;;;24.50;81.39;100277.13;4918167;29;20043;-92
2023/09/18 11:13:05;;;;;;;9.18;2.92;;;;;;;25.51;72.98;100280.91;4894278;29;20087;-91
2023/09/18 11:15:32;;;;;;;7.28;3.00;;;;;;;25.67;70.24;100284.00;4919117;29;20036;-92
2023/09/18 11:18:13;;;;;;;3.97;2.58;;;;;;;24.93;74.06;100292.22;4917806;29;20532;-92
2023/09/18 11:21:04;;;;;;;7.43;2.60;;;;;;;23.99;77.03;100293.28;4903670;29;20082;-92
2023/09/18 11:24:04;;;;;;;5.75;2.72;;;;;;;24.18;77.46;100289.44;4916824;29;20060;-92
2023/09/18 11:26:59;;;;;;;6.13;2.75;;;;;;;25.57;76.05;100274.06;4919410;29;20465;-92
2023/09/18 11:29:45;;;;;;;;;;;;;;;;;;;;;
2023/09/18 11:32:39;;;;;;;4.88;2.80;;;;;;;28.70;60.60;100276.41;4915375;29;20514;-92